createdAt,value
2023-04-19T00:01:48.468Z,5.10
2023-04-19T00:04:16.890Z,5.10
2023-04-19T00:06:47.328Z,5.20
2023-04-19T00:09:15.419Z,5.00
2023-04-19T00:11:43.503Z,5.10
2023-04-19T00:14:11.532Z,5.10
2023-04-19T00:16:39.647Z,5.00
2023-04-19T00:19:08.415Z,5.00
2023-04-19T00:21:36.480Z,5.00
2023-04-19T00:24:06.514Z,5.00
2023-04-19T00:26:34.678Z,5.00
2023-04-19T00:29:02.958Z,5.00
2023-04-19T00:31:31.201Z,5.00
2023-04-19T00:33:59.342Z,4.90
2023-04-19T00:36:28.200Z,4.90
2023-04-19T00:38:56.248Z,4.90
2023-04-19T00:41:25.771Z,4.90
2023-04-19T00:43:53.801Z,4.90
2023-04-19T00:46:21.953Z,4.80
2023-04-19T00:48:50.131Z,4.90
2023-04-19T00:51:18.257Z,4.90
2023-04-19T00:53:46.433Z,4.90
2023-04-19T00:56:14.617Z,4.80
2023-04-19T00:58:44.013Z,4.90
2023-04-19T01:01:12.207Z,4.80
2023-04-19T01:03:40.569Z,4.80
2023-04-19T01:06:08.860Z,4.80
2023-04-19T01:08:36.896Z,4.70
2023-04-19T01:11:04.985Z,4.70
2023-04-19T01:13:33.034Z,4.70
2023-04-19T01:16:02.521Z,4.70
2023-04-19T01:18:37.378Z,4.60
2023-04-19T01:21:06.980Z,4.60
2023-04-19T01:23:36.640Z,4.60
2023-04-19T01:26:04.718Z,4.60
2023-04-19T01:28:32.782Z,4.60
2023-04-19T01:31:00.892Z,4.50
2023-04-19T01:33:28.964Z,4.60
2023-04-19T01:35:57.029Z,4.50
2023-04-19T01:38:25.083Z,4.50
2023-04-19T01:40:56.879Z,4.40
2023-04-19T01:43:26.039Z,4.50
2023-04-19T01:45:54.119Z,4.50
2023-04-19T01:48:22.168Z,4.50
2023-04-19T01:50:50.260Z,4.50
2023-04-19T01:53:18.359Z,4.50
2023-04-19T01:55:46.682Z,4.50
2023-04-19T01:58:16.295Z,4.60
2023-04-19T02:00:46.304Z,4.60
2023-04-19T02:03:14.462Z,4.50
2023-04-19T02:05:43.989Z,4.50
2023-04-19T02:08:12.035Z,4.50
2023-04-19T02:10:40.082Z,4.40
2023-04-19T02:13:08.124Z,4.30
2023-04-19T02:15:39.436Z,4.30
2023-04-19T02:18:08.281Z,4.20
2023-04-19T02:20:36.451Z,4.20
2023-04-19T02:23:05.177Z,4.10
2023-04-19T02:25:33.297Z,4.00
2023-04-19T02:28:01.351Z,3.90
2023-04-19T02:30:29.446Z,3.90
2023-04-19T02:32:59.148Z,3.90
2023-04-19T02:35:27.217Z,3.90
2023-04-19T02:37:55.274Z,3.80
2023-04-19T02:40:23.914Z,3.80
2023-04-19T02:42:51.963Z,3.80
2023-04-19T02:45:20.032Z,3.80
2023-04-19T02:47:48.142Z,3.80
2023-04-19T02:50:17.935Z,3.70
2023-04-19T02:52:50.051Z,3.70
2023-04-19T02:55:19.115Z,3.70
2023-04-19T02:57:50.015Z,3.60
2023-04-19T03:00:18.719Z,3.60
2023-04-19T03:02:59.638Z,3.60
2023-04-19T03:05:31.116Z,3.60
2023-04-19T03:07:59.199Z,3.50
2023-04-19T03:10:27.472Z,3.50
2023-04-19T03:12:55.593Z,3.50
2023-04-19T03:15:23.767Z,3.50
2023-04-19T03:17:52.170Z,3.60
2023-04-19T03:20:22.618Z,3.50
2023-04-19T03:22:52.732Z,3.50
2023-04-19T03:25:21.771Z,3.50
2023-04-19T03:27:57.561Z,3.50
2023-04-19T03:30:45.912Z,3.40
2023-04-19T03:33:13.958Z,3.40
2023-04-19T03:35:42.347Z,3.40
2023-04-19T03:38:13.968Z,3.40
2023-04-19T03:40:42.315Z,3.40
2023-04-19T03:43:13.506Z,3.40
2023-04-19T03:45:41.611Z,3.40
2023-04-19T03:48:10.009Z,3.40
2023-04-19T03:50:38.300Z,3.30
2023-04-19T03:53:06.398Z,3.40
2023-04-19T03:55:35.820Z,3.40
2023-04-19T03:58:03.897Z,3.40
2023-04-19T04:00:49.646Z,3.40
2023-04-19T04:03:17.854Z,3.40
2023-04-19T04:05:46.137Z,3.50
2023-04-19T04:08:14.838Z,3.50
2023-04-19T04:10:44.276Z,3.50
2023-04-19T04:13:12.376Z,3.50
2023-04-19T04:15:47.860Z,3.60
2023-04-19T04:18:17.997Z,3.60
2023-04-19T04:20:46.603Z,3.60
2023-04-19T04:23:15.028Z,3.60
2023-04-19T04:25:49.283Z,3.60
2023-04-19T04:28:17.721Z,3.70
2023-04-19T04:30:46.142Z,3.60
2023-04-19T04:33:14.607Z,3.70
2023-04-19T04:35:44.527Z,3.70
2023-04-19T04:38:24.627Z,3.70
2023-04-19T04:40:55.716Z,3.70
2023-04-19T04:43:24.075Z,3.70
2023-04-19T04:45:55.723Z,3.70
2023-04-19T04:48:24.371Z,3.80
2023-04-19T04:50:52.445Z,3.80
2023-04-19T04:53:20.786Z,3.80
2023-04-19T04:55:50.268Z,3.90
2023-04-19T04:58:20.641Z,3.90
2023-04-19T05:00:58.286Z,3.90
2023-04-19T05:03:27.644Z,4.00
2023-04-19T05:05:59.213Z,4.00
2023-04-19T05:08:28.034Z,4.10
2023-04-19T05:11:01.223Z,4.10
2023-04-19T05:13:33.913Z,4.20
2023-04-19T05:16:02.037Z,4.30
2023-04-19T05:18:30.404Z,4.30
2023-04-19T05:20:58.537Z,4.40
2023-04-19T05:23:30.849Z,4.40
2023-04-19T05:25:59.496Z,4.50
2023-04-19T05:28:29.158Z,4.60
2023-04-19T05:31:05.958Z,4.70
2023-04-19T05:33:40.549Z,4.90
2023-04-19T05:36:09.261Z,5.00
2023-04-19T05:38:37.370Z,5.20
2023-04-19T05:41:08.684Z,5.30
2023-04-19T05:43:36.768Z,5.40
2023-04-19T05:46:06.651Z,5.60
2023-04-19T05:48:35.029Z,5.80
2023-04-19T05:51:22.134Z,6.00
2023-04-19T05:54:17.290Z,6.20
2023-04-19T05:56:48.209Z,6.30
2023-04-19T05:59:16.413Z,6.50
2023-04-19T06:01:46.010Z,6.50
2023-04-19T06:04:14.625Z,6.60
2023-04-19T06:06:43.217Z,6.80
2023-04-19T06:09:12.443Z,6.80
2023-04-19T06:11:50.003Z,7.00
2023-04-19T06:14:19.832Z,7.10
2023-04-19T06:16:49.487Z,7.20
2023-04-19T06:19:17.536Z,7.40
2023-04-19T06:21:46.090Z,7.50
2023-04-19T06:24:14.342Z,7.60
2023-04-19T06:26:43.314Z,7.70
2023-04-19T06:29:11.393Z,7.60
2023-04-19T06:31:39.607Z,7.80
2023-04-19T06:34:09.072Z,7.80
2023-04-19T06:36:37.149Z,8.10
2023-04-19T06:39:05.238Z,8.20
2023-04-19T06:41:33.273Z,8.50
2023-04-19T06:44:01.346Z,8.40
2023-04-19T06:46:29.522Z,8.60
2023-04-19T06:48:57.616Z,8.70
2023-04-19T06:51:27.116Z,8.60
2023-04-19T06:53:55.357Z,8.70
2023-04-19T06:56:41.979Z,8.90
2023-04-19T06:59:10.046Z,9.00
2023-04-19T07:01:38.166Z,9.30
2023-04-19T07:04:06.906Z,9.20
2023-04-19T07:06:36.438Z,9.30
2023-04-19T07:09:04.927Z,9.50
2023-04-19T07:11:33.089Z,9.50
2023-04-19T07:14:01.513Z,9.80
2023-04-19T07:16:29.825Z,9.80
2023-04-19T07:18:57.999Z,10.00
2023-04-19T07:21:28.772Z,10.00
2023-04-19T07:23:58.202Z,10.40
2023-04-19T07:26:26.237Z,10.40
2023-04-19T07:28:54.301Z,10.60
2023-04-19T07:31:22.377Z,10.60
2023-04-19T07:33:50.405Z,10.80
2023-04-19T07:36:18.489Z,10.60
2023-04-19T07:38:46.618Z,10.70
2023-04-19T07:41:16.002Z,10.90
2023-04-19T07:43:44.079Z,10.80
2023-04-19T07:46:12.511Z,11.00
2023-04-19T07:48:40.607Z,11.10
2023-04-19T07:51:12.121Z,11.20
2023-04-19T07:53:41.658Z,11.10
2023-04-19T07:56:11.432Z,11.30
2023-04-19T07:58:42.362Z,11.30
2023-04-19T08:01:11.564Z,11.40
2023-04-19T08:03:39.908Z,11.40
2023-04-19T08:06:09.101Z,11.50
2023-04-19T08:08:37.409Z,11.60
2023-04-19T08:11:06.072Z,11.60
2023-04-19T08:13:34.152Z,12.00
2023-04-19T08:16:32.160Z,12.10
2023-04-19T08:18:52.652Z,12.10
2023-04-19T08:21:24.047Z,12.00
2023-04-19T08:23:56.571Z,12.30
2023-04-19T08:26:24.647Z,12.30
2023-04-19T08:28:52.678Z,12.30
2023-04-19T08:31:22.245Z,12.10
2023-04-19T08:33:50.308Z,12.40
2023-04-19T08:36:22.441Z,12.70
2023-04-19T08:39:05.448Z,13.20
2023-04-19T08:41:36.993Z,13.30
2023-04-19T08:44:05.487Z,13.20
2023-04-19T08:46:35.005Z,13.20
2023-04-19T08:49:03.256Z,13.20
2023-04-19T08:51:31.310Z,13.60
2023-04-19T08:53:59.441Z,14.00
2023-04-19T08:56:35.213Z,13.60
2023-04-19T08:59:15.719Z,13.90
2023-04-19T09:01:48.022Z,13.50
2023-04-19T09:04:35.838Z,13.50
2023-04-19T09:07:04.421Z,13.10
2023-04-19T09:09:39.143Z,13.00
2023-04-19T09:12:18.092Z,12.90
2023-04-19T09:14:59.847Z,12.80
2023-04-19T09:17:30.624Z,12.80
2023-04-19T09:19:59.254Z,13.30
2023-04-19T09:22:27.459Z,13.30
2023-04-19T09:27:30.639Z,13.30
2023-04-19T09:29:59.610Z,13.60
2023-04-19T09:32:28.120Z,12.60
2023-04-19T09:34:58.206Z,12.00
2023-04-19T09:37:51.272Z,11.60
2023-04-19T09:40:23.949Z,11.80
2023-04-19T09:48:02.601Z,11.70
2023-04-19T09:50:33.475Z,11.80
2023-04-19T09:53:04.164Z,12.20
2023-04-19T09:55:41.221Z,12.60
2023-04-19T09:58:09.508Z,12.50
2023-04-19T10:00:45.693Z,12.10
2023-04-19T10:03:17.397Z,11.80
2023-04-19T10:05:46.969Z,11.70
2023-04-19T10:08:15.676Z,11.80
2023-04-19T10:10:45.583Z,12.20
2023-04-19T10:15:51.208Z,12.30
2023-04-19T10:18:23.462Z,12.10
2023-04-19T10:20:54.728Z,12.10
2023-04-19T10:23:23.175Z,11.90
2023-04-19T10:25:56.040Z,11.90
2023-04-19T10:28:24.086Z,12.10
2023-04-19T10:30:55.885Z,12.40
2023-04-19T10:33:27.863Z,12.60
2023-04-19T10:35:58.834Z,12.60
2023-04-19T10:38:40.009Z,12.70
2023-04-19T10:41:14.574Z,12.60
2023-04-19T10:43:46.297Z,12.50
2023-04-19T10:46:38.639Z,12.50
2023-04-19T10:49:07.980Z,12.40
2023-04-19T10:51:38.807Z,12.30
2023-04-19T10:54:07.264Z,12.30
2023-04-19T10:57:04.831Z,12.30
2023-04-19T10:59:33.396Z,12.50
2023-04-19T11:02:02.455Z,12.70
2023-04-19T11:05:11.552Z,13.10
2023-04-19T11:07:42.051Z,13.40
2023-04-19T11:10:11.763Z,13.80
2023-04-19T11:12:43.617Z,14.40
2023-04-19T11:15:12.132Z,14.00
2023-04-19T11:17:40.414Z,13.80
2023-04-19T11:20:09.991Z,14.00
2023-04-19T11:22:38.994Z,14.10
2023-04-19T11:25:09.903Z,14.10
2023-04-19T11:27:38.158Z,14.30
2023-04-19T11:30:06.925Z,14.50
2023-04-19T11:32:36.359Z,14.10
2023-04-19T11:35:09.201Z,14.00
2023-04-19T11:37:37.792Z,14.20
2023-04-19T11:40:09.059Z,14.50
2023-04-19T11:42:37.224Z,14.70
2023-04-19T11:45:07.524Z,14.80
2023-04-19T11:47:48.990Z,14.80
2023-04-19T11:50:33.306Z,13.90
2023-04-19T11:53:01.760Z,14.20
2023-04-19T11:55:33.976Z,14.50
2023-04-19T11:58:02.071Z,14.70
2023-04-19T12:00:31.636Z,14.60
2023-04-19T12:03:00.445Z,14.40
2023-04-19T12:05:29.095Z,14.60
2023-04-19T12:08:02.128Z,14.70
2023-04-19T12:10:31.908Z,14.80
2023-04-19T12:13:00.016Z,14.50
2023-04-19T12:15:42.957Z,14.20
2023-04-19T12:18:11.055Z,14.50
2023-04-19T12:20:39.692Z,14.60
2023-04-19T12:23:11.264Z,14.50
2023-04-19T12:25:40.959Z,14.20
2023-04-19T12:28:09.035Z,14.00
2023-04-19T12:30:37.368Z,14.30
2023-04-19T12:33:05.611Z,13.90
2023-04-19T12:35:34.117Z,13.80
2023-04-19T12:38:02.780Z,13.50
2023-04-19T12:40:32.202Z,13.90
2023-04-19T12:43:01.634Z,13.50
2023-04-19T12:45:29.792Z,13.30
2023-04-19T12:47:57.858Z,13.30
2023-04-19T12:50:25.986Z,13.20
2023-04-19T12:52:54.034Z,13.30
2023-04-19T12:55:22.261Z,13.40
2023-04-19T12:57:50.318Z,13.70
2023-04-19T13:00:19.939Z,13.30
2023-04-19T13:02:48.956Z,13.40
2023-04-19T13:05:17.161Z,13.50
2023-04-19T13:07:45.189Z,13.70
2023-04-19T13:10:13.561Z,13.70
2023-04-19T13:12:41.604Z,13.50
2023-04-19T13:15:10.990Z,13.40
2023-04-19T13:17:40.664Z,13.40
2023-04-19T13:20:10.167Z,13.30
2023-04-19T13:22:38.186Z,13.40
2023-04-19T13:25:06.898Z,13.20
2023-04-19T13:27:34.921Z,13.20
2023-04-19T13:30:03.033Z,13.50
2023-04-19T13:32:31.282Z,13.40
2023-04-19T13:35:00.760Z,13.60
2023-04-19T13:37:28.929Z,13.30
2023-04-19T13:40:10.752Z,13.30
2023-04-19T13:42:44.976Z,13.30
2023-04-19T13:45:13.701Z,13.50
2023-04-19T13:47:41.744Z,13.70
2023-04-19T13:50:13.069Z,13.90
2023-04-19T13:52:41.269Z,13.40
2023-04-19T13:55:10.184Z,13.50
2023-04-19T13:57:38.218Z,13.20
2023-04-19T14:00:08.504Z,12.70
2023-04-19T14:02:36.744Z,12.50
2023-04-19T14:05:05.286Z,12.40
2023-04-19T14:07:35.036Z,11.90
2023-04-19T14:10:03.276Z,12.00
2023-04-19T14:12:31.353Z,12.10
2023-04-19T14:14:59.448Z,11.60
2023-04-19T14:17:27.546Z,11.40
2023-04-19T14:19:56.028Z,10.80
2023-04-19T14:22:24.052Z,10.40
2023-04-19T14:24:53.465Z,10.30
2023-04-19T14:27:21.878Z,9.90
2023-04-19T14:29:49.926Z,9.50
2023-04-19T14:32:26.139Z,9.20
2023-04-19T14:34:55.664Z,8.80
2023-04-19T14:37:23.936Z,8.40
2023-04-19T14:39:53.454Z,8.30
2023-04-19T14:42:22.878Z,7.90
2023-04-19T14:44:52.686Z,7.70
2023-04-19T14:47:21.108Z,7.40
2023-04-19T14:49:49.310Z,7.30
2023-04-19T14:52:17.385Z,7.10
2023-04-19T14:54:45.440Z,7.10
2023-04-19T14:57:14.903Z,7.20
2023-04-19T14:59:42.972Z,7.10
2023-04-19T15:02:13.378Z,7.10
2023-04-19T15:04:42.134Z,7.00
2023-04-19T15:07:11.096Z,6.90
2023-04-19T15:09:40.341Z,7.00
2023-04-19T15:12:08.561Z,6.80
2023-04-19T15:14:38.052Z,6.90
2023-04-19T15:17:06.270Z,7.00
2023-04-19T15:19:34.455Z,7.00
2023-04-19T15:22:04.052Z,6.90
2023-04-19T15:24:32.230Z,6.90
2023-04-19T15:27:00.261Z,7.00
2023-04-19T15:29:28.333Z,7.10
2023-04-19T15:31:57.812Z,7.00
2023-04-19T15:34:26.073Z,7.00
2023-04-19T15:36:54.135Z,7.10
2023-04-19T15:39:22.223Z,7.10
2023-04-19T15:41:50.409Z,7.00
2023-04-19T15:44:18.474Z,6.90
2023-04-19T15:46:46.532Z,6.90
2023-04-19T15:49:16.169Z,6.90
2023-04-19T15:51:44.526Z,6.90
2023-04-19T15:54:14.380Z,6.80
2023-04-19T15:56:42.435Z,6.80
2023-04-19T15:59:10.552Z,6.80
2023-04-19T16:01:38.732Z,6.80
2023-04-19T16:04:07.369Z,6.70
2023-04-19T16:06:36.990Z,6.70
2023-04-19T16:09:06.611Z,6.60
2023-04-19T16:11:34.760Z,6.50
2023-04-19T16:14:02.814Z,6.50
2023-04-19T16:16:34.440Z,6.40
2023-04-19T16:19:02.653Z,6.30
2023-04-19T16:21:30.956Z,6.20
2023-04-19T16:24:00.961Z,6.20
2023-04-19T16:26:29.005Z,6.20
2023-04-19T16:28:57.086Z,6.20
2023-04-19T16:31:25.150Z,6.20
2023-04-19T16:33:53.229Z,6.10
2023-04-19T16:36:21.258Z,6.10
2023-04-19T16:38:49.316Z,6.20
2023-04-19T16:41:18.694Z,6.20
2023-04-19T16:43:46.741Z,6.20
2023-04-19T16:46:15.257Z,6.20
2023-04-19T16:48:43.462Z,6.20
2023-04-19T16:51:11.489Z,6.30
2023-04-19T16:53:39.547Z,6.30
2023-04-19T16:56:07.976Z,6.30
2023-04-19T16:58:37.396Z,6.20
2023-04-19T17:01:05.510Z,6.20
2023-04-19T17:03:34.054Z,6.20
2023-04-19T17:06:02.221Z,6.30
2023-04-19T17:08:30.801Z,6.20
2023-04-19T17:10:58.862Z,6.20
2023-04-19T17:13:27.420Z,6.20
2023-04-19T17:15:56.827Z,6.20
2023-04-19T17:18:24.890Z,6.20
2023-04-19T17:20:52.918Z,6.20
2023-04-19T17:23:21.317Z,6.20
2023-04-19T17:25:49.339Z,6.10
2023-04-19T17:28:17.406Z,6.20
2023-04-19T17:30:45.429Z,6.30
2023-04-19T17:33:14.836Z,6.30
2023-04-19T17:35:42.859Z,6.20
2023-04-19T17:38:11.574Z,6.20
2023-04-19T17:40:39.580Z,6.20
2023-04-19T17:43:07.634Z,6.10
2023-04-19T17:45:35.867Z,6.20
2023-04-19T17:48:03.959Z,6.10
2023-04-19T17:50:33.426Z,6.10
2023-04-19T17:53:01.470Z,6.10
2023-04-19T17:55:29.498Z,6.10
2023-04-19T17:57:57.562Z,6.10
2023-04-19T18:00:25.685Z,6.10
2023-04-19T18:02:53.913Z,6.10
2023-04-19T18:05:22.204Z,6.10
2023-04-19T18:07:51.628Z,6.10
2023-04-19T18:10:19.671Z,6.20
2023-04-19T18:12:47.723Z,6.20
2023-04-19T18:15:15.844Z,6.20
2023-04-19T18:17:44.032Z,6.20
2023-04-19T18:20:13.785Z,6.20
2023-04-19T18:22:42.002Z,6.20
2023-04-19T18:25:12.006Z,6.20
2023-04-19T18:27:40.072Z,6.10
2023-04-19T18:30:08.966Z,6.10
2023-04-19T18:32:37.090Z,6.20
2023-04-19T18:35:05.718Z,6.20
2023-04-19T18:37:33.833Z,6.30
2023-04-19T18:40:01.876Z,6.30
2023-04-19T18:42:31.281Z,6.40
2023-04-19T18:44:59.314Z,6.30
2023-04-19T18:47:27.656Z,6.30
2023-04-19T18:50:03.706Z,6.30
2023-04-19T18:52:33.049Z,6.30
2023-04-19T18:55:01.102Z,6.30
2023-04-19T18:57:30.629Z,6.40
2023-04-19T19:00:05.469Z,6.40
2023-04-19T19:02:36.394Z,6.40
2023-04-19T19:05:07.345Z,6.50
2023-04-19T19:07:37.489Z,6.50
2023-04-19T19:10:18.252Z,6.50
2023-04-19T19:12:48.887Z,6.50
2023-04-19T19:15:18.627Z,6.60
2023-04-19T19:17:49.927Z,6.60
2023-04-19T19:20:19.352Z,6.60
2023-04-19T19:22:47.528Z,6.60
2023-04-19T19:25:15.558Z,6.60
2023-04-19T19:27:58.201Z,6.60
2023-04-19T19:30:34.007Z,6.50
2023-04-19T19:33:02.930Z,6.60
2023-04-19T19:35:31.071Z,6.50
2023-04-19T19:37:59.127Z,6.50
2023-04-19T19:40:31.081Z,6.50
2023-04-19T19:43:00.781Z,6.50
2023-04-19T19:45:29.346Z,6.50
2023-04-19T19:48:00.715Z,6.40
2023-04-19T19:53:00.801Z,6.40
2023-04-19T19:55:30.191Z,6.30
2023-04-19T19:58:16.375Z,6.20
2023-04-19T20:00:50.395Z,6.10
2023-04-19T20:03:33.177Z,6.10
2023-04-19T20:06:35.825Z,6.00
2023-04-19T20:08:52.985Z,6.00
2023-04-19T20:11:21.238Z,6.00
2023-04-19T20:13:49.326Z,6.10
2023-04-19T20:16:18.813Z,6.10
2023-04-19T20:18:49.288Z,6.20
2023-04-19T20:21:19.623Z,6.10
2023-04-19T20:23:47.699Z,6.10
2023-04-19T20:26:15.745Z,6.00
2023-04-19T20:28:43.776Z,6.10
2023-04-19T20:31:11.829Z,6.10
2023-04-19T20:33:39.854Z,6.00
2023-04-19T20:36:09.654Z,6.00
2023-04-19T20:38:37.925Z,6.10
2023-04-19T20:41:06.033Z,6.00
2023-04-19T20:43:34.075Z,6.00
2023-04-19T20:46:02.238Z,6.00
2023-04-19T20:48:30.339Z,6.00
2023-04-19T20:50:58.373Z,6.00
2023-04-19T20:53:27.822Z,6.00
2023-04-19T20:55:55.859Z,6.00
2023-04-19T20:58:23.899Z,5.90
2023-04-19T21:00:51.954Z,5.90
2023-04-19T21:03:20.144Z,5.90
2023-04-19T21:05:48.480Z,5.90
2023-04-19T21:08:18.442Z,6.00
2023-04-19T21:10:47.810Z,6.00
2023-04-19T21:13:15.871Z,5.90
2023-04-19T21:15:44.016Z,6.00
2023-04-19T21:18:12.151Z,5.90
2023-04-19T21:20:40.680Z,6.00
2023-04-19T21:23:08.745Z,6.00
2023-04-19T21:25:36.775Z,6.10
2023-04-19T21:28:06.194Z,6.00
2023-04-19T21:30:38.634Z,6.00
2023-04-19T21:33:06.705Z,6.10
2023-04-19T21:35:35.313Z,6.10
2023-04-19T21:38:03.563Z,6.20
2023-04-19T21:40:31.697Z,6.10
2023-04-19T21:42:59.757Z,6.10
2023-04-19T21:45:29.304Z,6.20
2023-04-19T21:47:57.371Z,6.10
2023-04-19T21:50:25.774Z,6.10
2023-04-19T21:52:53.824Z,6.20
2023-04-19T21:55:22.078Z,6.20
2023-04-19T21:57:50.198Z,6.20
2023-04-19T22:00:18.483Z,6.20
2023-04-19T22:02:48.009Z,6.20
2023-04-19T22:05:16.765Z,6.20
2023-04-19T22:07:45.099Z,6.20
2023-04-19T22:10:13.784Z,6.20
2023-04-19T22:12:55.146Z,6.20
2023-04-19T22:15:26.402Z,6.10
2023-04-19T22:17:57.483Z,6.10
2023-04-19T22:20:25.882Z,6.00
2023-04-19T22:22:53.966Z,6.00
2023-04-19T22:25:22.199Z,6.00
2023-04-19T22:27:50.258Z,6.00
2023-04-19T22:30:18.295Z,6.00
2023-04-19T22:32:46.388Z,6.00
2023-04-19T22:35:15.856Z,6.00
2023-04-19T22:37:43.902Z,5.90
2023-04-19T22:40:13.034Z,5.90
2023-04-19T22:42:41.110Z,5.90
2023-04-19T22:45:10.194Z,5.90
2023-04-19T22:47:38.845Z,5.90
2023-04-19T22:50:08.914Z,5.90
2023-04-19T22:52:38.587Z,5.90
2023-04-19T22:55:07.407Z,5.80
2023-04-19T22:57:35.486Z,5.80
2023-04-19T23:00:05.419Z,5.90
2023-04-19T23:02:33.657Z,5.90
2023-04-19T23:05:02.267Z,5.80
2023-04-19T23:07:30.381Z,5.80
2023-04-19T23:09:59.814Z,5.80
2023-04-19T23:12:31.071Z,5.80
2023-04-19T23:14:59.479Z,5.80
2023-04-19T23:17:27.544Z,5.80
2023-04-19T23:19:55.618Z,5.80
2023-04-19T23:22:23.668Z,5.80
2023-04-19T23:24:51.689Z,5.80
2023-04-19T23:27:21.135Z,5.80
2023-04-19T23:29:49.231Z,5.90
2023-04-19T23:32:18.224Z,5.80
2023-04-19T23:34:46.257Z,5.80
2023-04-19T23:37:14.602Z,5.80
2023-04-19T23:39:42.631Z,5.80
2023-04-19T23:42:10.686Z,5.80
2023-04-19T23:44:42.199Z,5.80
2023-04-19T23:47:11.478Z,5.70
2023-04-19T23:49:39.705Z,5.70
2023-04-19T23:52:07.763Z,5.80
2023-04-19T23:54:35.860Z,5.80
2023-04-19T23:57:03.912Z,5.70
2023-04-19T23:59:33.231Z,5.80
